sensor_id;sensor_type;location;lat;lon;timestamp;pressure;altitude;pressure_sealevel;temperature;humidity
55191;BME280;41070;50.360;18.742;2024-03-23T00:53:58;98047.64;;;9.31;90.94
55191;BME280;41070;50.360;18.742;2024-03-23T00:57:06;98044.98;;;9.32;90.74
55191;BME280;41070;50.360;18.742;2024-03-23T01:00:05;98037.45;;;9.29;90.66
55191;BME280;41070;50.360;18.742;2024-03-23T01:03:05;98030.71;;;9.28;90.52
55191;BME280;41070;50.360;18.742;2024-03-23T01:06:12;98028.73;;;9.36;90.68
55191;BME280;41070;50.360;18.742;2024-03-23T01:09:33;98029.03;;;9.38;90.93
55191;BME280;41070;50.360;18.742;2024-03-23T01:12:21;98022.48;;;9.42;90.70
55191;BME280;41070;50.360;18.742;2024-03-23T01:15:29;98017.56;;;9.37;90.34
55191;BME280;41070;50.360;18.742;2024-03-23T01:21:45;98012.14;;;9.34;91.32
55191;BME280;41070;50.360;18.742;2024-03-23T01:24:50;98009.86;;;9.31;90.79
55191;BME280;41070;50.360;18.742;2024-03-23T01:27:56;98001.36;;;9.22;90.93
55191;BME280;41070;50.360;18.742;2024-03-23T01:31:04;97994.04;;;9.19;91.24
55191;BME280;41070;50.360;18.742;2024-03-23T01:34:10;97983.34;;;9.17;91.31
55191;BME280;41070;50.360;18.742;2024-03-23T01:37:17;97980.11;;;9.17;91.40
55191;BME280;41070;50.360;18.742;2024-03-23T01:40:24;97969.17;;;9.21;90.82
55191;BME280;41070;50.360;18.742;2024-03-23T01:43:33;97967.98;;;9.30;90.62
55191;BME280;41070;50.360;18.742;2024-03-23T01:46:42;97973.70;;;9.37;90.95
55191;BME280;41070;50.360;18.742;2024-03-23T01:49:48;97966.66;;;9.43;90.85
55191;BME280;41070;50.360;18.742;2024-03-23T01:52:55;97973.85;;;9.44;90.89
55191;BME280;41070;50.360;18.742;2024-03-23T01:56:02;97973.30;;;9.47;90.78
55191;BME280;41070;50.360;18.742;2024-03-23T01:59:08;97968.52;;;9.44;90.64
55191;BME280;41070;50.360;18.742;2024-03-23T02:02:18;97971.64;;;9.37;90.44
55191;BME280;41070;50.360;18.742;2024-03-23T02:05:24;97973.41;;;9.31;90.57
55191;BME280;41070;50.360;18.742;2024-03-23T02:08:31;97978.55;;;9.29;91.19
55191;BME280;41070;50.360;18.742;2024-03-23T02:11:38;97969.54;;;9.28;91.49
55191;BME280;41070;50.360;18.742;2024-03-23T02:14:45;97970.02;;;9.26;91.97
55191;BME280;41070;50.360;18.742;2024-03-23T02:17:51;97967.88;;;9.25;92.29
55191;BME280;41070;50.360;18.742;2024-03-23T02:20:59;97964.33;;;9.16;91.98
55191;BME280;41070;50.360;18.742;2024-03-23T02:24:06;97964.98;;;9.08;92.09
55191;BME280;41070;50.360;18.742;2024-03-23T02:27:13;97960.02;;;9.05;92.43
55191;BME280;41070;50.360;18.742;2024-03-23T02:30:17;97952.98;;;9.07;93.19
55191;BME280;41070;50.360;18.742;2024-03-23T02:33:25;97951.10;;;9.11;93.40
55191;BME280;41070;50.360;18.742;2024-03-23T02:36:31;97943.45;;;9.07;93.20
55191;BME280;41070;50.360;18.742;2024-03-23T02:39:38;97943.66;;;9.02;93.75
55191;BME280;41070;50.360;18.742;2024-03-23T02:45:50;97938.80;;;9.07;94.15
55191;BME280;41070;50.360;18.742;2024-03-23T02:48:57;97937.20;;;9.07;94.20
55191;BME280;41070;50.360;18.742;2024-03-23T02:55:09;97926.48;;;9.07;94.49
55191;BME280;41070;50.360;18.742;2024-03-23T02:58:16;97924.56;;;9.08;94.59
55191;BME280;41070;50.360;18.742;2024-03-23T03:01:24;97924.01;;;9.07;94.66
55191;BME280;41070;50.360;18.742;2024-03-23T03:04:31;97918.84;;;9.11;94.92
55191;BME280;41070;50.360;18.742;2024-03-23T03:07:37;97923.52;;;9.13;94.74
55191;BME280;41070;50.360;18.742;2024-03-23T03:10:47;97925.83;;;9.17;94.90
55191;BME280;41070;50.360;18.742;2024-03-23T03:13:53;97920.26;;;9.20;94.69
55191;BME280;41070;50.360;18.742;2024-03-23T03:17:00;97913.86;;;9.14;94.33
55191;BME280;41070;50.360;18.742;2024-03-23T03:20:07;97901.67;;;9.00;93.80
55191;BME280;41070;50.360;18.742;2024-03-23T03:23:14;97892.04;;;8.88;93.86
55191;BME280;41070;50.360;18.742;2024-03-23T03:26:21;97873.90;;;8.81;93.78
55191;BME280;41070;50.360;18.742;2024-03-23T03:29:28;97872.69;;;8.75;93.92
55191;BME280;41070;50.360;18.742;2024-03-23T03:32:41;97869.55;;;8.75;94.17
55191;BME280;41070;50.360;18.742;2024-03-23T03:35:48;97869.89;;;8.76;94.14
55191;BME280;41070;50.360;18.742;2024-03-23T03:38:55;97865.67;;;8.82;94.74
55191;BME280;41070;50.360;18.742;2024-03-23T03:44:59;97870.91;;;8.87;94.90
55191;BME280;41070;50.360;18.742;2024-03-23T03:48:06;97864.33;;;8.79;94.36
55191;BME280;41070;50.360;18.742;2024-03-23T03:51:13;97867.79;;;8.74;94.94
55191;BME280;41070;50.360;18.742;2024-03-23T03:54:20;97863.36;;;8.77;95.43
55191;BME280;41070;50.360;18.742;2024-03-23T03:57:27;97856.59;;;8.81;95.78
55191;BME280;41070;50.360;18.742;2024-03-23T04:00:34;97849.30;;;8.82;95.73
55191;BME280;41070;50.360;18.742;2024-03-23T04:03:41;97848.74;;;8.75;95.65
55191;BME280;41070;50.360;18.742;2024-03-23T04:06:57;97840.91;;;8.67;95.41
55191;BME280;41070;50.360;18.742;2024-03-23T04:12:49;97831.84;;;8.51;95.27
55191;BME280;41070;50.360;18.742;2024-03-23T04:15:56;97822.03;;;8.48;95.73
55191;BME280;41070;50.360;18.742;2024-03-23T04:19:02;97819.29;;;8.48;95.98
55191;BME280;41070;50.360;18.742;2024-03-23T04:22:10;97823.63;;;8.54;96.50
55191;BME280;41070;50.360;18.742;2024-03-23T04:25:42;97820.71;;;8.64;96.75
55191;BME280;41070;50.360;18.742;2024-03-23T04:28:08;97809.31;;;8.69;96.67
55191;BME280;41070;50.360;18.742;2024-03-23T04:31:13;97805.08;;;8.63;96.27
55191;BME280;41070;50.360;18.742;2024-03-23T04:34:21;97803.82;;;8.62;96.86
55191;BME280;41070;50.360;18.742;2024-03-23T04:37:27;97804.17;;;8.67;96.81
55191;BME280;41070;50.360;18.742;2024-03-23T04:40:35;97806.04;;;8.69;96.77
55191;BME280;41070;50.360;18.742;2024-03-23T04:43:42;97811.35;;;8.72;96.55
55191;BME280;41070;50.360;18.742;2024-03-23T04:46:48;97816.67;;;8.75;96.77
55191;BME280;41070;50.360;18.742;2024-03-23T04:49:55;97815.90;;;8.81;96.97
55191;BME280;41070;50.360;18.742;2024-03-23T04:53:02;97813.02;;;8.82;96.81
55191;BME280;41070;50.360;18.742;2024-03-23T04:56:08;97806.75;;;8.81;96.73
55191;BME280;41070;50.360;18.742;2024-03-23T04:59:15;97793.79;;;8.81;96.85
55191;BME280;41070;50.360;18.742;2024-03-23T05:02:22;97790.36;;;8.81;97.07
55191;BME280;41070;50.360;18.742;2024-03-23T05:05:29;97785.29;;;8.82;96.92
55191;BME280;41070;50.360;18.742;2024-03-23T05:08:36;97783.09;;;8.83;96.89
55191;BME280;41070;50.360;18.742;2024-03-23T05:11:42;97787.59;;;8.83;96.88
55191;BME280;41070;50.360;18.742;2024-03-23T05:14:49;97777.14;;;8.83;97.02
55191;BME280;41070;50.360;18.742;2024-03-23T05:17:56;97776.86;;;8.92;97.49
55191;BME280;41070;50.360;18.742;2024-03-23T05:21:03;97772.91;;;8.96;97.06
55191;BME280;41070;50.360;18.742;2024-03-23T05:27:16;97754.07;;;8.84;96.78
55191;BME280;41070;50.360;18.742;2024-03-23T05:30:23;97758.89;;;8.85;97.12
55191;BME280;41070;50.360;18.742;2024-03-23T05:33:30;97769.63;;;8.88;97.50
55191;BME280;41070;50.360;18.742;2024-03-23T05:36:37;97770.08;;;8.88;97.09
55191;BME280;41070;50.360;18.742;2024-03-23T05:39:37;97768.10;;;8.88;96.87
55191;BME280;41070;50.360;18.742;2024-03-23T05:42:44;97770.34;;;8.89;96.75
55191;BME280;41070;50.360;18.742;2024-03-23T05:46:16;97761.48;;;8.89;96.47
55191;BME280;41070;50.360;18.742;2024-03-23T05:48:54;97743.88;;;8.89;96.57
55191;BME280;41070;50.360;18.742;2024-03-23T05:52:07;97729.98;;;8.93;96.51
55191;BME280;41070;50.360;18.742;2024-03-23T05:55:14;97718.12;;;8.90;96.28
55191;BME280;41070;50.360;18.742;2024-03-23T05:58:21;97712.29;;;8.91;96.71
55191;BME280;41070;50.360;18.742;2024-03-23T06:04:27;97723.61;;;9.02;97.33
55191;BME280;41070;50.360;18.742;2024-03-23T06:10:33;97720.39;;;9.04;96.88
55191;BME280;41070;50.360;18.742;2024-03-23T06:13:41;97720.59;;;9.07;97.14
55191;BME280;41070;50.360;18.742;2024-03-23T06:16:48;97715.17;;;9.11;97.18
55191;BME280;41070;50.360;18.742;2024-03-23T06:19:55;97708.03;;;9.17;97.19
55191;BME280;41070;50.360;18.742;2024-03-23T06:26:02;97713.73;;;9.34;97.21
55191;BME280;41070;50.360;18.742;2024-03-23T06:29:09;97716.06;;;9.39;96.91
55191;BME280;41070;50.360;18.742;2024-03-23T06:32:04;97722.98;;;9.42;96.50
55191;BME280;41070;50.360;18.742;2024-03-23T06:35:12;97716.72;;;9.46;96.31
55191;BME280;41070;50.360;18.742;2024-03-23T06:38:19;97714.80;;;9.55;96.29
55191;BME280;41070;50.360;18.742;2024-03-23T06:41:26;97713.65;;;9.64;96.21
55191;BME280;41070;50.360;18.742;2024-03-23T06:44:56;97714.86;;;9.73;96.03
55191;BME280;41070;50.360;18.742;2024-03-23T06:51:02;97699.91;;;9.83;95.73
55191;BME280;41070;50.360;18.742;2024-03-23T06:54:10;97699.25;;;9.90;95.75
55191;BME280;41070;50.360;18.742;2024-03-23T06:57:17;97695.10;;;9.99;95.54
55191;BME280;41070;50.360;18.742;2024-03-23T07:00:27;97693.09;;;10.06;95.36
55191;BME280;41070;50.360;18.742;2024-03-23T07:03:32;97695.70;;;10.14;95.37
55191;BME280;41070;50.360;18.742;2024-03-23T07:09:45;97689.10;;;10.23;94.75
55191;BME280;41070;50.360;18.742;2024-03-23T07:12:53;97684.97;;;10.32;94.52
55191;BME280;41070;50.360;18.742;2024-03-23T07:15:59;97677.45;;;10.40;94.49
55191;BME280;41070;50.360;18.742;2024-03-23T07:19:07;97678.49;;;10.44;94.23
55191;BME280;41070;50.360;18.742;2024-03-23T07:25:40;97668.60;;;10.54;93.69
55191;BME280;41070;50.360;18.742;2024-03-23T07:28:55;97668.39;;;10.56;93.29
55191;BME280;41070;50.360;18.742;2024-03-23T07:31:41;97670.14;;;10.61;93.10
55191;BME280;41070;50.360;18.742;2024-03-23T07:34:48;97670.02;;;10.71;92.67
55191;BME280;41070;50.360;18.742;2024-03-23T07:37:48;97669.56;;;10.78;92.66
55191;BME280;41070;50.360;18.742;2024-03-23T07:41:19;97660.14;;;10.83;92.39
55191;BME280;41070;50.360;18.742;2024-03-23T07:43:43;97648.66;;;10.90;92.20
55191;BME280;41070;50.360;18.742;2024-03-23T07:46:49;97647.02;;;11.00;92.22
55191;BME280;41070;50.360;18.742;2024-03-23T07:49:57;97639.70;;;11.18;92.19
55191;BME280;41070;50.360;18.742;2024-03-23T07:53:03;97639.87;;;11.39;91.25
55191;BME280;41070;50.360;18.742;2024-03-23T07:56:50;97637.05;;;11.61;90.43
55191;BME280;41070;50.360;18.742;2024-03-23T07:59:26;97642.52;;;11.86;90.11
55191;BME280;41070;50.360;18.742;2024-03-23T08:02:33;97637.08;;;12.09;89.21
55191;BME280;41070;50.360;18.742;2024-03-23T08:05:41;97625.48;;;12.31;88.21
55191;BME280;41070;50.360;18.742;2024-03-23T08:11:47;97615.77;;;12.59;86.40
55191;BME280;41070;50.360;18.742;2024-03-23T08:14:54;97602.69;;;12.72;85.41
55191;BME280;41070;50.360;18.742;2024-03-23T08:18:00;97594.49;;;12.80;84.66
55191;BME280;41070;50.360;18.742;2024-03-23T08:21:08;97583.93;;;12.89;83.98
55191;BME280;41070;50.360;18.742;2024-03-23T08:24:15;97575.52;;;12.99;83.31
55191;BME280;41070;50.360;18.742;2024-03-23T08:27:21;97572.28;;;13.08;82.99
55191;BME280;41070;50.360;18.742;2024-03-23T08:30:28;97563.85;;;13.22;82.49
55191;BME280;41070;50.360;18.742;2024-03-23T08:36:40;97544.98;;;13.53;80.76
55191;BME280;41070;50.360;18.742;2024-03-23T08:39:46;97538.30;;;13.51;80.11
55191;BME280;41070;50.360;18.742;2024-03-23T08:42:53;97533.91;;;13.54;79.79
55191;BME280;41070;50.360;18.742;2024-03-23T08:46:24;97533.13;;;13.60;79.46
55191;BME280;41070;50.360;18.742;2024-03-23T08:49:07;97524.97;;;13.71;78.65
55191;BME280;41070;50.360;18.742;2024-03-23T08:52:14;97522.42;;;13.74;77.43
55191;BME280;41070;50.360;18.742;2024-03-23T08:55:21;97521.58;;;13.74;76.63
55191;BME280;41070;50.360;18.742;2024-03-23T08:58:28;97516.59;;;13.71;76.42
55191;BME280;41070;50.360;18.742;2024-03-23T09:01:34;97517.11;;;13.76;73.57
55191;BME280;41070;50.360;18.742;2024-03-23T09:04:37;97508.28;;;13.79;72.53
55191;BME280;41070;50.360;18.742;2024-03-23T09:07:42;97505.24;;;13.86;72.92
55191;BME280;41070;50.360;18.742;2024-03-23T09:10:49;97487.42;;;13.89;71.12
55191;BME280;41070;50.360;18.742;2024-03-23T09:13:56;97469.41;;;13.95;71.10
55191;BME280;41070;50.360;18.742;2024-03-23T09:17:02;97457.87;;;13.99;70.84
55191;BME280;41070;50.360;18.742;2024-03-23T09:20:09;97452.57;;;13.99;70.90
55191;BME280;41070;50.360;18.742;2024-03-23T09:23:16;97440.19;;;14.03;70.60
55191;BME280;41070;50.360;18.742;2024-03-23T09:26:23;97436.54;;;14.10;70.20
55191;BME280;41070;50.360;18.742;2024-03-23T09:29:23;97440.40;;;14.18;69.93
55191;BME280;41070;50.360;18.742;2024-03-23T09:32:30;97439.40;;;14.32;69.42
55191;BME280;41070;50.360;18.742;2024-03-23T09:41:41;97423.54;;;14.61;67.51
55191;BME280;41070;50.360;18.742;2024-03-23T09:44:48;97412.57;;;14.66;66.58
55191;BME280;41070;50.360;18.742;2024-03-23T09:47:55;97405.59;;;14.73;66.49
55191;BME280;41070;50.360;18.742;2024-03-23T09:51:02;97399.27;;;14.83;66.24
55191;BME280;41070;50.360;18.742;2024-03-23T09:54:33;97400.10;;;14.93;64.84
55191;BME280;41070;50.360;18.742;2024-03-23T09:57:21;97393.91;;;15.04;64.73
55191;BME280;41070;50.360;18.742;2024-03-23T10:15:28;97348.95;;;15.94;64.11
55191;BME280;41070;50.360;18.742;2024-03-23T10:18:59;97346.93;;;16.00;63.91
55191;BME280;41070;50.360;18.742;2024-03-23T10:22:13;97345.26;;;16.09;63.79
55191;BME280;41070;50.360;18.742;2024-03-23T10:24:54;97347.77;;;16.21;62.89
55191;BME280;41070;50.360;18.742;2024-03-23T10:28:01;97346.66;;;16.18;63.16
55191;BME280;41070;50.360;18.742;2024-03-23T10:31:34;97340.04;;;16.02;63.14
55191;BME280;41070;50.360;18.742;2024-03-23T10:34:16;97326.75;;;15.94;63.00
55191;BME280;41070;50.360;18.742;2024-03-23T10:37:23;97316.05;;;15.88;62.13
55191;BME280;41070;50.360;18.742;2024-03-23T10:40:51;97312.83;;;15.92;61.73
55191;BME280;41070;50.360;18.742;2024-03-23T10:43:39;97304.51;;;16.07;61.98
55191;BME280;41070;50.360;18.742;2024-03-23T10:46:46;97286.83;;;16.24;62.80
55191;BME280;41070;50.360;18.742;2024-03-23T10:49:53;97271.09;;;16.38;62.13
55191;BME280;41070;50.360;18.742;2024-03-23T10:53:01;97267.80;;;16.53;61.48
55191;BME280;41070;50.360;18.742;2024-03-23T10:56:08;97255.05;;;16.59;60.20
55191;BME280;41070;50.360;18.742;2024-03-23T10:59:17;97248.59;;;16.53;59.59
55191;BME280;41070;50.360;18.742;2024-03-23T11:02:58;97245.67;;;16.57;60.35
55191;BME280;41070;50.360;18.742;2024-03-23T11:21:55;97185.42;;;17.22;56.45
55191;BME280;41070;50.360;18.742;2024-03-23T11:24:40;97181.21;;;17.34;55.53
55191;BME280;41070;50.360;18.742;2024-03-23T11:27:45;97169.08;;;17.42;55.20
55191;BME280;41070;50.360;18.742;2024-03-23T11:30:52;97157.75;;;17.47;54.08
55191;BME280;41070;50.360;18.742;2024-03-23T11:33:31;97143.08;;;17.56;53.80
55191;BME280;41070;50.360;18.742;2024-03-23T11:36:43;97137.83;;;17.62;53.72
55191;BME280;41070;50.360;18.742;2024-03-23T11:39:52;97132.34;;;17.62;53.77
55191;BME280;41070;50.360;18.742;2024-03-23T11:42:58;97124.14;;;17.72;53.13
55191;BME280;41070;50.360;18.742;2024-03-23T11:46:26;97123.72;;;17.77;52.82
55191;BME280;41070;50.360;18.742;2024-03-23T11:52:15;97095.67;;;17.95;51.56
55191;BME280;41070;50.360;18.742;2024-03-23T12:05:34;97061.92;;;18.17;50.20
55191;BME280;41070;50.360;18.742;2024-03-23T12:11:52;97060.38;;;18.30;49.52
55191;BME280;41070;50.360;18.742;2024-03-23T12:19:41;97039.94;;;18.31;49.04
55191;BME280;41070;50.360;18.742;2024-03-23T12:22:23;97039.42;;;18.36;48.61
55191;BME280;41070;50.360;18.742;2024-03-23T12:25:23;97025.58;;;18.42;48.43
55191;BME280;41070;50.360;18.742;2024-03-23T12:28:29;97012.53;;;18.51;47.03
55191;BME280;41070;50.360;18.742;2024-03-23T12:31:38;96997.95;;;18.60;47.01
55191;BME280;41070;50.360;18.742;2024-03-23T12:34:45;96983.61;;;18.68;47.37
55191;BME280;41070;50.360;18.742;2024-03-23T12:37:52;96972.77;;;18.81;46.05
55191;BME280;41070;50.360;18.742;2024-03-23T12:44:19;96981.04;;;19.11;47.28
55191;BME280;41070;50.360;18.742;2024-03-23T12:47:19;96975.32;;;19.31;46.72
55191;BME280;41070;50.360;18.742;2024-03-23T12:50:25;96963.54;;;19.47;45.29
55191;BME280;41070;50.360;18.742;2024-03-23T12:53:32;96965.33;;;19.61;46.17
55191;BME280;41070;50.360;18.742;2024-03-23T12:56:34;96962.38;;;19.75;45.19
55191;BME280;41070;50.360;18.742;2024-03-23T12:59:32;96958.98;;;19.81;44.78
55191;BME280;41070;50.360;18.742;2024-03-23T13:02:39;96951.30;;;19.89;44.91
55191;BME280;41070;50.360;18.742;2024-03-23T13:05:51;96952.88;;;20.06;44.90
55191;BME280;41070;50.360;18.742;2024-03-23T13:08:53;96953.73;;;20.29;44.61
55191;BME280;41070;50.360;18.742;2024-03-23T13:11:43;96958.72;;;20.32;43.82
55191;BME280;41070;50.360;18.742;2024-03-23T13:14:51;96972.31;;;19.96;44.13
55191;BME280;41070;50.360;18.742;2024-03-23T13:18:01;96977.34;;;19.43;45.21
55191;BME280;41070;50.360;18.742;2024-03-23T13:21:05;96999.92;;;18.94;45.59
55191;BME280;41070;50.360;18.742;2024-03-23T13:24:12;97069.90;;;18.52;46.42
55191;BME280;41070;50.360;18.742;2024-03-23T13:30:19;97226.15;;;15.73;69.88
55191;BME280;41070;50.360;18.742;2024-03-23T13:33:25;97261.77;;;13.70;79.45
55191;BME280;41070;50.360;18.742;2024-03-23T13:36:33;97261.10;;;12.26;86.11
55191;BME280;41070;50.360;18.742;2024-03-23T13:39:42;97259.12;;;11.45;90.61
55191;BME280;41070;50.360;18.742;2024-03-23T13:45:55;97274.43;;;10.51;95.52
55191;BME280;41070;50.360;18.742;2024-03-23T13:49:01;97276.42;;;10.30;96.33
55191;BME280;41070;50.360;18.742;2024-03-23T13:52:08;97290.04;;;10.14;97.24
55191;BME280;41070;50.360;18.742;2024-03-23T13:55:34;97289.73;;;10.03;98.00
55191;BME280;41070;50.360;18.742;2024-03-23T13:58:20;97289.39;;;9.98;97.90
55191;BME280;41070;50.360;18.742;2024-03-23T14:01:27;97291.54;;;9.91;98.65
55191;BME280;41070;50.360;18.742;2024-03-23T14:04:34;97273.60;;;9.91;97.78
55191;BME280;41070;50.360;18.742;2024-03-23T14:07:21;97264.83;;;9.93;97.40
55191;BME280;41070;50.360;18.742;2024-03-23T14:10:30;97265.76;;;9.94;96.66
55191;BME280;41070;50.360;18.742;2024-03-23T14:13:40;97271.23;;;10.01;96.20
55191;BME280;41070;50.360;18.742;2024-03-23T14:16:50;97266.39;;;10.06;95.67
55191;BME280;41070;50.360;18.742;2024-03-23T14:19:57;97275.05;;;10.12;95.27
55191;BME280;41070;50.360;18.742;2024-03-23T14:23:07;97262.35;;;10.19;95.19
55191;BME280;41070;50.360;18.742;2024-03-23T14:26:15;97262.02;;;10.27;94.93
55191;BME280;41070;50.360;18.742;2024-03-23T14:29:22;97259.73;;;10.34;94.62
55191;BME280;41070;50.360;18.742;2024-03-23T14:32:54;97249.83;;;10.38;93.98
55191;BME280;41070;50.360;18.742;2024-03-23T14:35:41;97229.13;;;10.39;93.90
55191;BME280;41070;50.360;18.742;2024-03-23T14:38:48;97241.92;;;10.43;93.19
55191;BME280;41070;50.360;18.742;2024-03-23T14:41:55;97246.66;;;10.45;93.17
55191;BME280;41070;50.360;18.742;2024-03-23T14:45:24;97230.40;;;10.46;92.93
55191;BME280;41070;50.360;18.742;2024-03-23T14:48:15;97218.34;;;10.49;93.19
55191;BME280;41070;50.360;18.742;2024-03-23T14:51:54;97219.20;;;10.56;92.82
55191;BME280;41070;50.360;18.742;2024-03-23T14:54:42;97199.02;;;10.64;92.67
55191;BME280;41070;50.360;18.742;2024-03-23T14:57:54;97177.61;;;10.69;92.98
55191;BME280;41070;50.360;18.742;2024-03-23T15:01:01;97167.17;;;10.74;92.39
55191;BME280;41070;50.360;18.742;2024-03-23T15:04:08;97155.63;;;10.76;92.40
55191;BME280;41070;50.360;18.742;2024-03-23T15:07:17;97185.02;;;10.83;92.32
55191;BME280;41070;50.360;18.742;2024-03-23T15:10:25;97195.73;;;10.92;92.01
55191;BME280;41070;50.360;18.742;2024-03-23T15:13:32;97204.30;;;10.91;92.02
55191;BME280;41070;50.360;18.742;2024-03-23T15:17:02;97220.56;;;10.86;91.88
55191;BME280;41070;50.360;18.742;2024-03-23T15:20:16;97235.01;;;10.82;91.80
55191;BME280;41070;50.360;18.742;2024-03-23T15:23:23;97239.88;;;10.77;91.96
55191;BME280;41070;50.360;18.742;2024-03-23T15:26:36;97243.22;;;10.74;91.83
55191;BME280;41070;50.360;18.742;2024-03-23T15:29:47;97246.66;;;10.74;92.00
55191;BME280;41070;50.360;18.742;2024-03-23T15:32:53;97246.13;;;10.75;92.39
55191;BME280;41070;50.360;18.742;2024-03-23T15:39:32;97240.02;;;10.76;93.14
55191;BME280;41070;50.360;18.742;2024-03-23T15:42:20;97232.15;;;10.79;93.51
55191;BME280;41070;50.360;18.742;2024-03-23T15:45:27;97232.70;;;10.81;93.77
55191;BME280;41070;50.360;18.742;2024-03-23T15:48:34;97246.16;;;10.85;94.64
55191;BME280;41070;50.360;18.742;2024-03-23T15:51:42;97255.03;;;10.85;94.02
55191;BME280;41070;50.360;18.742;2024-03-23T15:54:50;97261.98;;;10.81;93.66
55191;BME280;41070;50.360;18.742;2024-03-23T15:57:59;97290.86;;;10.79;94.22
55191;BME280;41070;50.360;18.742;2024-03-23T16:04:12;97390.39;;;10.48;92.74
55191;BME280;41070;50.360;18.742;2024-03-23T16:10:47;97418.08;;;9.61;90.21
55191;BME280;41070;50.360;18.742;2024-03-23T16:13:30;97410.45;;;9.24;89.51
55191;BME280;41070;50.360;18.742;2024-03-23T16:16:37;97423.48;;;8.96;89.35
55191;BME280;41070;50.360;18.742;2024-03-23T16:19:44;97442.34;;;8.73;89.21
55191;BME280;41070;50.360;18.742;2024-03-23T16:22:51;97431.83;;;8.53;89.29
55191;BME280;41070;50.360;18.742;2024-03-23T16:25:58;97447.36;;;8.37;89.03
55191;BME280;41070;50.360;18.742;2024-03-23T16:29:06;97448.25;;;8.22;89.37
55191;BME280;41070;50.360;18.742;2024-03-23T16:32:12;97462.16;;;8.08;88.72
55191;BME280;41070;50.360;18.742;2024-03-23T16:35:20;97479.48;;;7.91;88.44
55191;BME280;41070;50.360;18.742;2024-03-23T16:38:27;97491.48;;;7.73;88.83
55191;BME280;41070;50.360;18.742;2024-03-23T16:41:39;97497.29;;;7.61;89.78
55191;BME280;41070;50.360;18.742;2024-03-23T16:44:46;97523.46;;;7.47;90.71
55191;BME280;41070;50.360;18.742;2024-03-23T16:47:54;97531.76;;;7.33;91.30
55191;BME280;41070;50.360;18.742;2024-03-23T16:51:01;97537.14;;;7.25;91.63
55191;BME280;41070;50.360;18.742;2024-03-23T16:54:08;97564.71;;;7.21;91.83
55191;BME280;41070;50.360;18.742;2024-03-23T16:57:14;97567.90;;;7.11;91.97
55191;BME280;41070;50.360;18.742;2024-03-23T17:00:24;97573.90;;;6.98;92.23
55191;BME280;41070;50.360;18.742;2024-03-23T17:03:30;97579.88;;;6.91;91.84
55191;BME280;41070;50.360;18.742;2024-03-23T17:06:37;97583.34;;;6.87;91.38
55191;BME280;41070;50.360;18.742;2024-03-23T17:09:47;97584.95;;;6.82;90.84
55191;BME280;41070;50.360;18.742;2024-03-23T17:16:21;97593.12;;;6.72;90.86
55191;BME280;41070;50.360;18.742;2024-03-23T17:19:09;97603.95;;;6.67;90.78
55191;BME280;41070;50.360;18.742;2024-03-23T17:22:17;97606.52;;;6.64;91.21
55191;BME280;41070;50.360;18.742;2024-03-23T17:28:30;97617.80;;;6.63;91.11
55191;BME280;41070;50.360;18.742;2024-03-23T17:31:48;97617.27;;;6.54;90.95
55191;BME280;41070;50.360;18.742;2024-03-23T17:34:49;97622.55;;;6.47;90.93
55191;BME280;41070;50.360;18.742;2024-03-23T17:38:21;97632.71;;;6.44;90.78
55191;BME280;41070;50.360;18.742;2024-03-23T17:41:35;97650.09;;;6.41;90.60
55191;BME280;41070;50.360;18.742;2024-03-23T17:44:24;97665.67;;;6.31;89.97
55191;BME280;41070;50.360;18.742;2024-03-23T17:47:54;97672.39;;;6.21;89.95
55191;BME280;41070;50.360;18.742;2024-03-23T17:50:37;97682.33;;;6.16;89.71
55191;BME280;41070;50.360;18.742;2024-03-23T17:53:44;97693.29;;;6.10;89.55
55191;BME280;41070;50.360;18.742;2024-03-23T17:56:51;97701.83;;;6.03;89.53
55191;BME280;41070;50.360;18.742;2024-03-23T17:59:58;97710.95;;;5.97;89.35
55191;BME280;41070;50.360;18.742;2024-03-23T18:03:04;97717.77;;;5.92;89.36
55191;BME280;41070;50.360;18.742;2024-03-23T18:06:13;97723.91;;;5.87;88.92
55191;BME280;41070;50.360;18.742;2024-03-23T18:09:19;97740.65;;;5.81;88.84
55191;BME280;41070;50.360;18.742;2024-03-23T18:12:27;97743.77;;;5.77;88.90
55191;BME280;41070;50.360;18.742;2024-03-23T18:15:34;97734.67;;;5.75;89.27
55191;BME280;41070;50.360;18.742;2024-03-23T18:18:41;97743.99;;;5.74;89.06
55191;BME280;41070;50.360;18.742;2024-03-23T18:21:48;97750.75;;;5.75;88.96
55191;BME280;41070;50.360;18.742;2024-03-23T18:24:48;97745.72;;;5.71;88.92
55191;BME280;41070;50.360;18.742;2024-03-23T18:27:54;97755.04;;;5.71;89.06
55191;BME280;41070;50.360;18.742;2024-03-23T18:43:26;97751.55;;;6.10;87.87
55191;BME280;41070;50.360;18.742;2024-03-23T18:45:56;97760.24;;;6.03;87.28
55191;BME280;41070;50.360;18.742;2024-03-23T18:48:28;97742.02;;;5.89;86.81
55191;BME280;41070;50.360;18.742;2024-03-23T18:51:02;97739.80;;;5.79;87.55
55191;BME280;41070;50.360;18.742;2024-03-23T18:53:35;97752.45;;;5.76;87.32
55191;BME280;41070;50.360;18.742;2024-03-23T18:56:06;97751.20;;;5.71;87.27
55191;BME280;41070;50.360;18.742;2024-03-23T18:59:10;97758.25;;;5.68;86.76
55191;BME280;41070;50.360;18.742;2024-03-23T19:01:52;97751.94;;;5.58;85.93
55191;BME280;41070;50.360;18.742;2024-03-23T19:04:22;97746.04;;;5.51;85.34
55191;BME280;41070;50.360;18.742;2024-03-23T19:06:57;97747.09;;;5.44;85.50
55191;BME280;41070;50.360;18.742;2024-03-23T19:09:31;97748.73;;;5.41;84.86
55191;BME280;41070;50.360;18.742;2024-03-23T19:12:06;97738.45;;;5.35;84.66
55191;BME280;41070;50.360;18.742;2024-03-23T19:14:46;97734.23;;;5.32;84.96
55191;BME280;41070;50.360;18.742;2024-03-23T19:17:15;97732.62;;;5.33;84.25
55191;BME280;41070;50.360;18.742;2024-03-23T19:19:46;97737.59;;;5.29;83.66
55191;BME280;41070;50.360;18.742;2024-03-23T19:22:17;97733.48;;;5.26;83.49
55191;BME280;41070;50.360;18.742;2024-03-23T19:24:54;97724.30;;;5.24;83.57